createdAt,value
2022-08-19T00:00:16.349Z,6.05
2022-08-19T00:02:49.940Z,5.30
2022-08-19T00:05:21.045Z,5.22
2022-08-19T00:07:51.745Z,5.57
2022-08-19T00:10:21.760Z,5.22
2022-08-19T00:12:50.423Z,5.22
2022-08-19T00:15:23.662Z,4.88
2022-08-19T00:17:52.049Z,5.72
2022-08-19T00:20:23.490Z,5.78
2022-08-19T00:22:52.021Z,5.50
2022-08-19T00:25:30.153Z,4.75
2022-08-19T00:27:59.245Z,4.78
2022-08-19T00:30:29.865Z,4.55
2022-08-19T00:32:58.681Z,4.63
2022-08-19T00:35:29.086Z,4.32
2022-08-19T00:37:58.276Z,4.50
2022-08-19T00:40:27.486Z,4.45
2022-08-19T00:42:55.789Z,4.38
2022-08-19T00:45:26.565Z,4.60
2022-08-19T00:47:54.861Z,4.97
2022-08-19T00:50:24.209Z,4.40
2022-08-19T00:52:53.767Z,4.57
2022-08-19T00:55:25.803Z,5.00
2022-08-19T00:57:58.501Z,4.50
2022-08-19T01:00:29.160Z,4.78
2022-08-19T01:02:57.892Z,4.30
2022-08-19T01:05:31.490Z,3.92
2022-08-19T01:08:03.190Z,3.78
2022-08-19T01:10:36.953Z,4.60
2022-08-19T01:13:06.672Z,4.40
2022-08-19T01:15:42.491Z,4.30
2022-08-19T01:18:13.785Z,3.50
2022-08-19T01:20:43.290Z,4.00
2022-08-19T01:23:11.630Z,4.00
2022-08-19T01:25:47.950Z,3.83
2022-08-19T01:28:40.078Z,4.20
2022-08-19T01:31:26.381Z,4.25
2022-08-19T01:33:58.380Z,3.92
2022-08-19T01:36:40.275Z,3.15
2022-08-19T01:39:12.406Z,3.72
2022-08-19T01:41:41.009Z,3.60
2022-08-19T01:44:18.447Z,3.45
2022-08-19T01:46:50.280Z,3.17
2022-08-19T01:49:21.560Z,3.58
2022-08-19T01:51:51.540Z,3.60
2022-08-19T01:54:23.475Z,3.45
2022-08-19T01:57:02.527Z,3.70
2022-08-19T01:59:32.312Z,3.40
2022-08-19T02:02:00.690Z,3.15
2022-08-19T02:04:29.121Z,3.20
2022-08-19T02:06:57.451Z,3.00
2022-08-19T02:09:25.780Z,3.15
2022-08-19T02:11:53.995Z,3.13
2022-08-19T02:14:22.231Z,3.10
2022-08-19T02:16:50.499Z,2.78
2022-08-19T02:19:19.347Z,3.15
2022-08-19T02:21:48.310Z,2.97
2022-08-19T02:24:16.796Z,3.00
2022-08-19T02:26:44.965Z,3.03
2022-08-19T02:29:13.225Z,3.05
2022-08-19T02:31:41.562Z,3.17
2022-08-19T02:34:10.365Z,3.10
2022-08-19T02:36:42.302Z,3.10
2022-08-19T02:39:12.113Z,2.90
2022-08-19T02:41:40.519Z,3.10
2022-08-19T02:44:28.920Z,7.68
2022-08-19T02:46:57.481Z,3.65
2022-08-19T02:49:25.800Z,3.40
2022-08-19T02:51:53.970Z,4.90
2022-08-19T02:54:22.265Z,3.65
2022-08-19T02:56:51.075Z,3.92
2022-08-19T02:59:22.903Z,3.55
2022-08-19T03:01:51.667Z,3.80
2022-08-19T03:04:21.193Z,3.58
2022-08-19T03:06:50.103Z,3.47
2022-08-19T03:09:20.529Z,3.40
2022-08-19T03:11:48.995Z,3.72
2022-08-19T03:14:21.155Z,3.60
2022-08-19T03:16:52.355Z,3.83
2022-08-19T03:19:23.288Z,4.32
2022-08-19T03:21:53.156Z,3.80
2022-08-19T03:24:22.730Z,4.10
2022-08-19T03:26:54.772Z,3.88
2022-08-19T03:29:30.885Z,4.25
2022-08-19T03:32:06.120Z,9.00
2022-08-19T03:34:36.845Z,3.97
2022-08-19T03:37:16.835Z,3.90
2022-08-19T03:39:45.116Z,4.32
2022-08-19T03:42:38.275Z,3.85
2022-08-19T03:45:02.927Z,3.95
2022-08-19T03:47:32.431Z,4.00
2022-08-19T03:50:00.745Z,4.07
2022-08-19T03:52:29.165Z,3.97
2022-08-19T03:54:57.400Z,3.75
2022-08-19T03:57:31.793Z,3.72
2022-08-19T04:00:12.698Z,4.18
2022-08-19T04:02:58.046Z,3.95
2022-08-19T04:05:31.717Z,4.50
2022-08-19T04:08:01.000Z,4.28
2022-08-19T04:10:30.115Z,4.10
2022-08-19T04:12:58.505Z,3.90
2022-08-19T04:15:26.665Z,3.90
2022-08-19T04:17:55.080Z,4.00
2022-08-19T04:20:23.561Z,4.07
2022-08-19T04:22:55.019Z,4.22
2022-08-19T04:25:23.400Z,3.83
2022-08-19T04:27:51.875Z,4.13
2022-08-19T04:30:21.158Z,4.13
2022-08-19T04:32:49.481Z,3.80
2022-08-19T04:35:20.138Z,4.10
2022-08-19T04:37:50.305Z,4.13
2022-08-19T04:40:36.978Z,4.18
2022-08-19T04:43:05.315Z,4.20
2022-08-19T04:45:39.451Z,4.18
2022-08-19T04:48:25.669Z,4.25
2022-08-19T04:51:01.631Z,4.35
2022-08-19T04:53:37.735Z,4.45
2022-08-19T04:56:15.030Z,4.10
2022-08-19T04:58:46.119Z,3.88
2022-08-19T05:01:21.704Z,4.00
2022-08-19T05:03:51.061Z,3.50
2022-08-19T05:06:21.956Z,3.65
2022-08-19T05:08:50.875Z,3.63
2022-08-19T05:11:26.300Z,4.13
2022-08-19T05:13:55.220Z,3.67
2022-08-19T05:16:25.714Z,3.70
2022-08-19T05:19:12.416Z,3.15
2022-08-19T05:22:01.010Z,3.38
2022-08-19T05:24:29.798Z,3.20
2022-08-19T05:26:59.777Z,3.50
2022-08-19T05:29:36.165Z,2.88
2022-08-19T05:32:07.475Z,3.42
2022-08-19T05:34:35.730Z,3.53
2022-08-19T05:37:06.266Z,3.47
2022-08-19T05:39:36.574Z,3.63
2022-08-19T05:42:09.156Z,3.47
2022-08-19T05:44:47.560Z,3.40
2022-08-19T05:47:16.839Z,3.47
2022-08-19T05:49:45.320Z,3.42
2022-08-19T05:52:18.968Z,3.20
2022-08-19T05:54:51.359Z,3.40
2022-08-19T05:57:21.315Z,3.67
2022-08-19T05:59:52.692Z,3.20
2022-08-19T06:02:22.133Z,3.38
2022-08-19T06:04:51.475Z,3.17
2022-08-19T06:07:19.716Z,3.28
2022-08-19T06:09:59.644Z,3.22
2022-08-19T06:12:36.835Z,3.60
2022-08-19T06:15:12.211Z,3.15
2022-08-19T06:17:40.591Z,2.97
2022-08-19T06:20:14.984Z,3.08
2022-08-19T06:25:13.870Z,3.30
2022-08-19T06:28:14.153Z,3.50
2022-08-19T06:30:31.428Z,3.35
2022-08-19T06:32:59.625Z,3.10
2022-08-19T06:35:28.241Z,2.75
2022-08-19T06:37:56.686Z,3.08
2022-08-19T06:40:25.427Z,3.00
2022-08-19T06:42:55.507Z,3.00
2022-08-19T06:45:34.775Z,3.25
2022-08-19T06:48:04.752Z,3.22
2022-08-19T06:50:33.231Z,2.92
2022-08-19T06:53:04.316Z,3.13
2022-08-19T06:55:33.471Z,2.80
2022-08-19T06:58:05.551Z,3.00
2022-08-19T07:00:35.555Z,2.83
2022-08-19T07:03:07.643Z,2.50
2022-08-19T07:05:45.884Z,2.80
2022-08-19T07:08:15.505Z,3.40
2022-08-19T07:10:47.776Z,3.08
2022-08-19T07:13:16.201Z,3.30
2022-08-19T07:15:44.426Z,2.85
2022-08-19T07:18:12.581Z,2.70
2022-08-19T07:20:43.726Z,3.20
2022-08-19T07:23:16.112Z,3.10
2022-08-19T07:25:53.026Z,3.28
2022-08-19T07:28:24.730Z,3.10
2022-08-19T07:30:54.756Z,3.00
2022-08-19T07:33:23.835Z,2.50
2022-08-19T07:35:57.225Z,2.63
2022-08-19T07:38:25.635Z,2.83
2022-08-19T07:40:55.855Z,3.00
2022-08-19T07:43:35.056Z,2.80
2022-08-19T07:46:03.668Z,2.75
2022-08-19T07:48:32.031Z,2.60
2022-08-19T07:51:03.871Z,2.90
2022-08-19T07:53:39.157Z,2.35
2022-08-19T07:56:09.475Z,2.55
2022-08-19T07:58:40.997Z,2.60
2022-08-19T08:01:12.676Z,2.65
2022-08-19T08:03:59.835Z,2.75
2022-08-19T08:06:46.916Z,2.83
2022-08-19T08:12:33.482Z,2.20
2022-08-19T08:15:12.436Z,2.90
2022-08-19T08:17:49.503Z,2.70
2022-08-19T08:20:21.156Z,2.92
2022-08-19T08:23:08.272Z,2.78
2022-08-19T08:25:38.240Z,3.00
2022-08-19T08:28:07.396Z,3.00
2022-08-19T08:30:37.964Z,2.80
2022-08-19T08:33:06.527Z,2.70
2022-08-19T08:35:35.646Z,2.88
2022-08-19T08:38:06.440Z,2.70
2022-08-19T08:40:56.197Z,2.70
2022-08-19T08:43:32.614Z,3.00
2022-08-19T08:46:12.359Z,2.95
2022-08-19T08:48:56.360Z,2.90
2022-08-19T08:51:35.769Z,2.80
2022-08-19T08:54:09.888Z,2.90
2022-08-19T08:56:41.797Z,2.70
2022-08-19T08:59:34.121Z,3.13
2022-08-19T09:02:02.911Z,2.95
2022-08-19T09:04:31.715Z,2.75
2022-08-19T09:07:47.302Z,3.35
2022-08-19T09:10:25.848Z,3.50
2022-08-19T09:13:37.840Z,2.70
2022-08-19T09:16:13.223Z,2.95
2022-08-19T09:18:45.955Z,2.80
2022-08-19T09:21:15.566Z,2.60
2022-08-19T09:23:45.167Z,2.75
2022-08-19T09:26:17.176Z,2.95
2022-08-19T09:28:50.435Z,2.50
2022-08-19T09:31:27.075Z,2.40
2022-08-19T09:33:59.235Z,2.40
2022-08-19T09:36:40.730Z,2.70
2022-08-19T09:39:15.988Z,2.70
2022-08-19T09:41:47.295Z,2.78
2022-08-19T09:44:18.199Z,2.60
2022-08-19T09:46:49.000Z,2.80
2022-08-19T09:49:19.851Z,2.40
2022-08-19T09:51:53.706Z,2.33
2022-08-19T09:54:23.661Z,2.70
2022-08-19T09:56:57.956Z,2.40
2022-08-19T09:59:26.275Z,2.45
2022-08-19T10:02:03.582Z,2.60
2022-08-19T10:04:55.560Z,2.20
2022-08-19T10:07:36.145Z,2.35
2022-08-19T10:10:08.910Z,2.40
2022-08-19T10:12:38.825Z,2.45
2022-08-19T10:15:08.044Z,2.50
2022-08-19T10:17:36.994Z,2.40
2022-08-19T10:20:07.959Z,2.42
2022-08-19T10:22:37.955Z,2.65
2022-08-19T10:25:08.035Z,2.50
2022-08-19T10:27:36.355Z,2.22
2022-08-19T10:30:10.113Z,2.47
2022-08-19T10:32:46.428Z,2.45
2022-08-19T10:35:16.258Z,2.42
2022-08-19T10:37:57.462Z,2.35
2022-08-19T10:40:30.352Z,2.38
2022-08-19T10:42:58.757Z,2.50
2022-08-19T10:45:28.515Z,2.50
2022-08-19T10:47:56.819Z,2.85
2022-08-19T10:50:43.245Z,2.60
2022-08-19T10:53:11.554Z,2.80
2022-08-19T10:55:59.081Z,2.38
2022-08-19T10:58:27.944Z,2.47
2022-08-19T11:01:00.893Z,2.40
2022-08-19T11:03:32.995Z,3.05
2022-08-19T11:06:07.797Z,2.83
2022-08-19T11:08:39.325Z,3.05
2022-08-19T11:11:09.705Z,2.60
2022-08-19T11:13:41.320Z,2.53
2022-08-19T11:16:11.563Z,2.65
2022-08-19T11:18:43.075Z,3.20
2022-08-19T11:21:21.314Z,2.65
2022-08-19T11:23:53.315Z,2.70
2022-08-19T11:26:22.839Z,3.90
2022-08-19T11:28:54.429Z,4.45
2022-08-19T11:31:29.162Z,3.83
2022-08-19T11:34:03.364Z,4.10
2022-08-19T11:36:34.595Z,3.65
2022-08-19T11:39:03.720Z,3.75
2022-08-19T11:41:32.014Z,3.50
2022-08-19T11:44:00.679Z,3.78
2022-08-19T11:46:32.360Z,3.83
2022-08-19T11:49:02.442Z,4.07
2022-08-19T11:51:32.194Z,3.90
2022-08-19T11:54:02.025Z,4.43
2022-08-19T11:56:30.914Z,5.55
2022-08-19T11:58:59.239Z,5.10
2022-08-19T12:01:28.670Z,5.63
2022-08-19T12:03:58.809Z,6.35
2022-08-19T12:06:31.079Z,6.15
2022-08-19T12:09:02.274Z,6.07
2022-08-19T12:11:34.534Z,6.22
2022-08-19T12:14:03.234Z,5.90
2022-08-19T12:16:34.595Z,6.38
2022-08-19T12:19:07.235Z,6.03
2022-08-19T12:21:38.125Z,6.32
2022-08-19T12:24:07.719Z,5.70
2022-08-19T12:26:53.536Z,6.97
2022-08-19T12:29:24.137Z,6.57
2022-08-19T12:31:53.475Z,6.30
2022-08-19T12:34:22.279Z,5.55
2022-08-19T12:36:51.554Z,6.25
2022-08-19T12:39:20.190Z,6.32
2022-08-19T12:41:54.354Z,6.45
2022-08-19T12:44:29.437Z,5.70
2022-08-19T12:46:59.196Z,5.32
2022-08-19T12:49:52.354Z,5.70
2022-08-19T12:52:21.460Z,6.53
2022-08-19T12:54:54.078Z,6.10
2022-08-19T12:57:32.089Z,5.32
2022-08-19T13:00:22.679Z,5.47
2022-08-19T13:02:54.280Z,5.75
2022-08-19T13:05:27.931Z,6.10
2022-08-19T13:07:58.435Z,6.32
2022-08-19T13:10:30.904Z,5.82
2022-08-19T13:13:01.482Z,5.80
2022-08-19T13:15:33.175Z,6.65
2022-08-19T13:18:01.469Z,5.70
2022-08-19T13:20:30.185Z,6.10
2022-08-19T13:22:59.243Z,6.30
2022-08-19T13:25:28.585Z,5.80
2022-08-19T13:28:01.320Z,5.93
2022-08-19T13:30:47.961Z,6.18
2022-08-19T13:33:17.322Z,5.65
2022-08-19T13:36:02.830Z,5.80
2022-08-19T13:38:32.317Z,5.47
2022-08-19T13:41:12.146Z,5.75
2022-08-19T13:43:41.787Z,5.95
2022-08-19T13:46:16.514Z,5.80
2022-08-19T13:48:46.060Z,6.20
2022-08-19T13:51:14.565Z,5.28
2022-08-19T13:53:47.874Z,5.68
2022-08-19T13:56:25.870Z,5.90
2022-08-19T13:58:55.310Z,5.43
2022-08-19T14:01:28.515Z,5.88
2022-08-19T14:03:56.996Z,5.20
2022-08-19T14:06:25.316Z,5.68
2022-08-19T14:08:54.755Z,6.13
2022-08-19T14:11:24.831Z,5.55
2022-08-19T14:13:54.115Z,5.65
2022-08-19T14:16:23.555Z,5.90
2022-08-19T14:18:52.041Z,5.38
2022-08-19T14:21:25.561Z,5.72
2022-08-19T14:23:54.506Z,6.00
2022-08-19T14:26:24.196Z,5.60
2022-08-19T14:28:54.188Z,5.68
2022-08-19T14:31:29.109Z,5.25
2022-08-19T14:33:59.240Z,5.45
2022-08-19T14:36:27.565Z,5.53
2022-08-19T14:38:56.085Z,5.40
2022-08-19T14:41:25.915Z,5.40
2022-08-19T14:43:55.846Z,5.50
2022-08-19T14:46:28.239Z,5.47
2022-08-19T14:48:59.942Z,6.00
2022-08-19T14:51:28.795Z,5.88
2022-08-19T14:53:57.961Z,5.65
2022-08-19T14:56:29.635Z,5.90
2022-08-19T14:59:01.156Z,5.72
2022-08-19T15:01:30.307Z,6.20
2022-08-19T15:03:58.667Z,5.75
2022-08-19T15:06:27.556Z,6.47
2022-08-19T15:08:57.776Z,5.93
2022-08-19T15:11:30.115Z,5.53
2022-08-19T15:14:00.748Z,5.75
2022-08-19T15:16:29.606Z,5.55
2022-08-19T15:19:01.637Z,5.63
2022-08-19T15:21:31.720Z,6.20
2022-08-19T15:24:00.920Z,5.93
2022-08-19T15:26:33.810Z,6.55
2022-08-19T15:29:03.880Z,6.10
2022-08-19T15:31:38.123Z,6.00
2022-08-19T15:34:08.032Z,5.85
2022-08-19T15:36:37.483Z,6.20
2022-08-19T15:39:08.310Z,6.50
2022-08-19T15:41:40.266Z,6.50
2022-08-19T15:44:11.730Z,6.30
2022-08-19T15:46:42.717Z,5.82
2022-08-19T15:49:15.796Z,5.95
2022-08-19T15:51:47.086Z,6.38
2022-08-19T15:54:18.676Z,6.40
2022-08-19T15:57:07.035Z,6.20
2022-08-19T15:59:55.950Z,6.25
2022-08-19T16:02:49.715Z,6.63
2022-08-19T16:05:44.998Z,6.00
2022-08-19T16:08:13.327Z,6.45
2022-08-19T16:10:41.931Z,7.22
2022-08-19T16:13:11.829Z,7.32
2022-08-19T16:15:42.780Z,7.70
2022-08-19T16:18:11.401Z,7.93
2022-08-19T16:20:39.715Z,6.45
2022-08-19T16:23:08.155Z,8.02
2022-08-19T16:25:37.249Z,7.80
2022-08-19T16:28:08.050Z,11.52
2022-08-19T16:30:40.042Z,11.60
2022-08-19T16:33:09.709Z,12.00
2022-08-19T16:35:38.305Z,12.40
2022-08-19T16:38:07.885Z,11.63
2022-08-19T16:40:36.675Z,11.00
2022-08-19T16:43:05.364Z,13.50
2022-08-19T16:45:33.800Z,12.05
2022-08-19T16:48:02.128Z,14.35
2022-08-19T16:50:48.328Z,12.93
2022-08-19T16:53:20.368Z,12.27
2022-08-19T16:55:57.518Z,11.88
2022-08-19T16:58:29.926Z,11.68
2022-08-19T17:01:03.904Z,11.48
2022-08-19T17:06:20.521Z,11.73
2022-08-19T17:08:55.395Z,10.65
2022-08-19T17:11:26.336Z,10.07
2022-08-19T17:13:56.521Z,11.38
2022-08-19T17:16:27.565Z,10.77
2022-08-19T17:18:57.880Z,11.35
2022-08-19T17:21:29.483Z,11.65
2022-08-19T17:23:58.725Z,11.57
2022-08-19T17:26:28.120Z,12.90
2022-08-19T17:28:58.560Z,10.77
2022-08-19T17:31:29.560Z,11.05
2022-08-19T17:33:59.760Z,10.38
2022-08-19T17:36:30.170Z,10.35
2022-08-19T17:39:01.331Z,11.18
2022-08-19T17:41:31.245Z,10.57
2022-08-19T17:43:59.766Z,10.43
2022-08-19T17:46:30.927Z,10.70
2022-08-19T17:48:59.375Z,10.52
2022-08-19T17:51:33.416Z,10.23
2022-08-19T17:54:02.375Z,11.00
2022-08-19T17:56:30.682Z,9.93
2022-08-19T17:59:00.423Z,9.02
2022-08-19T18:01:51.810Z,9.55
2022-08-19T18:04:20.489Z,8.25
2022-08-19T18:06:52.972Z,9.27
2022-08-19T18:09:28.195Z,8.60
2022-08-19T18:11:58.385Z,9.35
2022-08-19T18:14:33.795Z,10.73
2022-08-19T18:17:10.113Z,9.98
2022-08-19T18:19:43.906Z,8.63
2022-08-19T18:22:24.355Z,7.38
2022-08-19T18:24:52.675Z,7.85
2022-08-19T18:27:21.715Z,7.35
2022-08-19T18:29:50.441Z,8.40
2022-08-19T18:32:23.545Z,7.97
2022-08-19T18:34:54.115Z,8.27
2022-08-19T18:37:23.485Z,8.80
2022-08-19T18:40:09.941Z,7.85
2022-08-19T18:43:02.526Z,9.15
2022-08-19T18:45:50.030Z,7.82
2022-08-19T18:48:36.477Z,6.43
2022-08-19T18:51:05.650Z,6.57
2022-08-19T18:53:36.681Z,7.50
2022-08-19T18:56:06.560Z,6.88
2022-08-19T18:58:35.886Z,7.72
2022-08-19T19:01:14.230Z,6.80
2022-08-19T19:03:46.794Z,7.15
2022-08-19T19:06:20.760Z,7.70
2022-08-19T19:08:51.090Z,6.38
2022-08-19T19:11:41.635Z,6.57
2022-08-19T19:14:23.244Z,6.68
2022-08-19T19:17:02.924Z,6.90
2022-08-19T19:19:32.710Z,9.48
2022-08-19T19:22:03.170Z,7.82
2022-08-19T19:24:33.705Z,7.63
2022-08-19T19:27:07.891Z,8.25
2022-08-19T19:32:09.401Z,8.45
2022-08-19T19:34:41.550Z,7.97
2022-08-19T19:37:09.956Z,7.72
2022-08-19T19:39:45.177Z,6.80
2022-08-19T19:42:21.264Z,6.75
2022-08-19T19:44:52.153Z,5.78
2022-08-19T19:47:22.191Z,4.97
2022-08-19T19:50:13.318Z,4.47
2022-08-19T19:52:42.390Z,5.20
2022-08-19T19:55:18.936Z,5.55
2022-08-19T19:57:51.032Z,5.10
2022-08-19T20:00:19.967Z,4.65
2022-08-19T20:02:50.509Z,4.50
2022-08-19T20:05:22.742Z,4.20
2022-08-19T20:08:10.679Z,4.22
2022-08-19T20:10:40.330Z,5.05
2022-08-19T20:13:09.318Z,4.75
2022-08-19T20:15:42.331Z,5.03
2022-08-19T20:18:13.006Z,4.65
2022-08-19T20:20:42.455Z,4.82
2022-08-19T20:23:10.667Z,4.90
2022-08-19T20:25:40.515Z,4.40
2022-08-19T20:28:09.735Z,4.80
2022-08-19T20:30:42.033Z,4.80
2022-08-19T20:33:16.450Z,4.50
2022-08-19T20:35:46.017Z,4.50
2022-08-19T20:38:15.045Z,4.20
2022-08-19T20:40:43.722Z,4.90
2022-08-19T20:43:16.356Z,4.45
2022-08-19T20:45:44.996Z,4.22
2022-08-19T20:48:14.602Z,4.40
2022-08-19T20:50:43.246Z,4.50
2022-08-19T20:53:17.076Z,4.45
2022-08-19T20:55:47.556Z,4.20
2022-08-19T20:58:17.156Z,4.72
2022-08-19T21:00:46.983Z,4.50
2022-08-19T21:03:23.080Z,4.35
2022-08-19T21:05:51.795Z,4.82
2022-08-19T21:08:20.205Z,4.13
2022-08-19T21:10:50.755Z,4.35
2022-08-19T21:13:20.841Z,4.85
2022-08-19T21:15:49.642Z,4.82
2022-08-19T21:18:20.611Z,4.13
2022-08-19T21:20:50.201Z,4.00
2022-08-19T21:23:22.296Z,4.43
2022-08-19T21:25:54.887Z,4.18
2022-08-19T21:28:35.843Z,3.80
2022-08-19T21:31:07.147Z,3.97
2022-08-19T21:33:35.647Z,3.33
2022-08-19T21:36:05.511Z,3.60
2022-08-19T21:38:34.755Z,3.80
2022-08-19T21:41:05.925Z,3.97
2022-08-19T21:43:36.291Z,4.10
2022-08-19T21:46:05.405Z,3.85
2022-08-19T21:48:34.039Z,3.97
2022-08-19T21:51:02.441Z,3.80
2022-08-19T21:53:31.661Z,3.60
2022-08-19T21:56:07.640Z,3.90
2022-08-19T21:58:39.391Z,3.50
2022-08-19T22:01:08.908Z,4.05
2022-08-19T22:03:38.585Z,3.83
2022-08-19T22:06:08.822Z,4.35
2022-08-19T22:08:38.031Z,4.32
2022-08-19T22:11:06.525Z,4.45
2022-08-19T22:13:40.362Z,4.88
2022-08-19T22:16:10.612Z,4.60
2022-08-19T22:18:39.485Z,5.25
2022-08-19T22:21:11.713Z,4.90
2022-08-19T22:23:47.875Z,5.40
2022-08-19T22:26:18.072Z,4.68
2022-08-19T22:28:46.431Z,4.80
2022-08-19T22:31:15.722Z,4.68
2022-08-19T22:33:44.286Z,5.00
2022-08-19T22:36:12.685Z,4.70
2022-08-19T22:38:41.011Z,4.75
2022-08-19T22:41:09.955Z,5.57
2022-08-19T22:43:38.915Z,5.18
2022-08-19T22:46:17.249Z,4.78
2022-08-19T22:48:47.236Z,4.68
2022-08-19T22:51:34.985Z,4.72
2022-08-19T22:54:03.710Z,5.00
2022-08-19T22:56:31.945Z,5.07
2022-08-19T22:59:00.360Z,5.35
2022-08-19T23:01:30.645Z,5.28
2022-08-19T23:04:03.783Z,5.55
2022-08-19T23:06:34.666Z,5.20
2022-08-19T23:09:07.717Z,5.65
2022-08-19T23:11:42.009Z,6.10
2022-08-19T23:14:13.406Z,6.05
2022-08-19T23:16:42.595Z,6.15
2022-08-19T23:19:12.520Z,5.93
2022-08-19T23:21:42.515Z,6.63
2022-08-19T23:24:11.554Z,5.97
2022-08-19T23:27:00.675Z,5.95
2022-08-19T23:29:47.334Z,6.43
2022-08-19T23:32:17.637Z,6.50
2022-08-19T23:34:46.196Z,6.07
2022-08-19T23:37:14.737Z,6.80
2022-08-19T23:39:43.440Z,6.72
2022-08-19T23:42:14.595Z,6.90
2022-08-19T23:44:52.340Z,6.57
2022-08-19T23:47:22.435Z,6.65
2022-08-19T23:49:51.555Z,6.90
2022-08-19T23:52:20.257Z,7.03
2022-08-19T23:54:48.486Z,6.68
2022-08-19T23:57:16.943Z,6.57
2022-08-19T23:59:46.085Z,6.32
